Time;durP1;ratioP1;P1;durP2;ratioP2;P2;SDS_P1;SDS_P2;PMS_P1;PMS_P2;Temp;Humidity;BMP_temperature;BMP_pressure;BME280_temperature;BME280_humidity;BME280_pressure;Samples;Min_cycle;Max_cycle;Signal;HPM_P1;HPM_P2
2024/03/30 00:02:33;;;;;;;6.20;4.40;;;13.50;98.40;;;;;;5036671;28;20075;-79
2024/03/30 00:05:19;;;;;;;6.82;4.80;;;13.50;98.40;;;;;;5037892;28;20386;-78
2024/03/30 00:08:07;;;;;;;6.38;4.90;;;13.50;98.50;;;;;;5022073;28;20485;-78
2024/03/30 00:11:02;;;;;;;6.68;4.70;;;13.50;98.50;;;;;;5044005;28;20056;-78
2024/03/30 00:13:48;;;;;;;5.38;4.28;;;13.50;98.60;;;;;;5042187;28;20481;-76
2024/03/30 00:16:34;;;;;;;7.40;4.82;;;13.50;98.50;;;;;;5052809;28;20041;-76
2024/03/30 00:19:19;;;;;;;7.25;4.50;;;13.50;98.60;;;;;;5046849;28;20094;-76
2024/03/30 00:22:06;;;;;;;6.45;4.95;;;13.50;98.60;;;;;;5051224;28;20049;-76
2024/03/30 00:24:52;;;;;;;7.45;4.70;;;13.50;98.60;;;;;;5044126;28;20048;-76
2024/03/30 00:27:39;;;;;;;7.72;5.32;;;13.50;98.70;;;;;;5041046;28;20132;-76
2024/03/30 00:30:25;;;;;;;7.15;4.72;;;13.40;98.70;;;;;;5046278;28;20041;-76
2024/03/30 00:33:15;;;;;;;7.13;4.70;;;13.50;98.70;;;;;;5049512;28;20079;-76
2024/03/30 00:36:01;;;;;;;6.43;4.57;;;13.50;98.80;;;;;;5048799;28;20440;-77
2024/03/30 00:38:48;;;;;;;7.50;5.50;;;13.40;98.70;;;;;;5048777;28;20080;-76
2024/03/30 00:41:34;;;;;;;6.45;4.53;;;13.40;98.80;;;;;;5045950;28;20049;-76
2024/03/30 00:44:20;;;;;;;6.43;5.00;;;13.40;98.90;;;;;;5027865;28;20065;-76
2024/03/30 00:47:07;;;;;;;7.95;5.60;;;13.40;98.90;;;;;;5040825;28;20688;-76
2024/03/30 00:49:52;;;;;;;7.13;5.65;;;13.30;99.00;;;;;;5046277;28;20041;-76
2024/03/30 00:52:38;;;;;;;7.75;5.88;;;13.30;99.00;;;;;;5036660;28;20048;-76
2024/03/30 00:55:24;;;;;;;7.80;5.38;;;13.30;99.10;;;;;;5037491;28;20065;-76
2024/03/30 00:58:10;;;;;;;7.95;5.57;;;13.30;99.10;;;;;;5051156;28;20111;-77
2024/03/30 01:00:56;;;;;;;6.10;4.68;;;13.20;99.20;;;;;;5041835;28;20053;-76
2024/03/30 01:03:42;;;;;;;9.05;6.55;;;13.20;99.20;;;;;;5044519;28;20048;-76
2024/03/30 01:06:28;;;;;;;9.60;5.68;;;13.20;99.20;;;;;;5049556;28;20186;-76
2024/03/30 01:09:14;;;;;;;8.25;5.43;;;13.10;99.20;;;;;;5035759;28;20049;-76
2024/03/30 01:12:00;;;;;;;8.52;5.63;;;13.10;99.30;;;;;;5047600;28;20044;-76
2024/03/30 01:14:46;;;;;;;7.40;5.43;;;13.10;99.30;;;;;;5048282;28;20037;-76
2024/03/30 01:17:36;;;;;;;7.50;5.72;;;13.10;99.40;;;;;;5039650;28;20112;-76
2024/03/30 01:20:23;;;;;;;8.60;6.10;;;13.00;99.40;;;;;;5045631;28;20053;-75
2024/03/30 01:23:09;;;;;;;8.48;5.82;;;13.00;99.50;;;;;;5051733;28;20067;-76
2024/03/30 01:25:58;;;;;;;7.43;5.93;;;13.00;99.50;;;;;;5031479;28;20500;-75
2024/03/30 01:28:45;;;;;;;6.13;4.95;;;13.00;99.60;;;;;;5026521;28;20041;-75
2024/03/30 01:31:31;;;;;;;8.60;5.05;;;12.90;99.60;;;;;;5026014;28;20456;-82
2024/03/30 01:34:18;;;;;;;8.45;5.80;;;12.90;99.60;;;;;;5030485;28;20441;-81
2024/03/30 01:37:04;;;;;;;6.95;4.60;;;12.90;99.60;;;;;;5044844;28;20041;-81
2024/03/30 01:39:50;;;;;;;11.40;4.75;;;12.90;99.70;;;;;;5048393;28;20052;-81
2024/03/30 01:42:38;;;;;;;6.65;4.60;;;12.80;99.70;;;;;;5030138;28;20069;-79
2024/03/30 01:45:26;;;;;;;6.18;4.50;;;12.80;99.70;;;;;;5047511;28;20408;-79
2024/03/30 01:48:12;;;;;;;6.85;4.75;;;12.80;99.80;;;;;;5048307;28;20072;-79
2024/03/30 01:50:58;;;;;;;6.30;4.47;;;12.80;99.80;;;;;;5045272;28;20491;-80
2024/03/30 01:53:44;;;;;;;6.53;4.60;;;12.80;99.80;;;;;;5038536;28;20064;-78
2024/03/30 01:56:30;;;;;;;6.35;4.25;;;12.70;99.80;;;;;;5032616;28;20041;-78
2024/03/30 01:59:16;;;;;;;7.25;4.50;;;12.70;99.90;;;;;;5043002;28;20515;-78
2024/03/30 02:02:02;;;;;;;7.53;4.03;;;12.70;99.90;;;;;;5046564;28;20500;-77
2024/03/30 02:04:48;;;;;;;5.35;4.43;;;12.70;99.90;;;;;;5048696;28;20055;-78
2024/03/30 02:07:34;;;;;;;6.07;4.20;;;12.60;99.90;;;;;;5043512;28;20048;-78
2024/03/30 02:10:21;;;;;;;6.35;4.10;;;12.60;99.90;;;;;;5043606;28;20087;-78
2024/03/30 02:13:06;;;;;;;6.65;3.80;;;12.60;99.90;;;;;;5039329;28;20059;-78
2024/03/30 02:15:52;;;;;;;6.47;4.13;;;12.60;99.90;;;;;;5040043;28;20033;-78
2024/03/30 02:18:39;;;;;;;4.95;3.72;;;12.50;99.90;;;;;;5045921;28;20038;-78
2024/03/30 02:21:25;;;;;;;6.28;3.85;;;12.50;99.90;;;;;;5048017;28;20073;-78
2024/03/30 02:24:11;;;;;;;5.28;3.88;;;12.50;99.90;;;;;;5041637;28;20128;-78
2024/03/30 02:26:57;;;;;;;6.38;4.03;;;12.50;99.90;;;;;;5049563;28;20102;-78
2024/03/30 02:29:49;;;;;;;7.22;4.28;;;12.50;99.90;;;;;;5038317;28;20062;-78
2024/03/30 02:32:35;;;;;;;5.53;4.60;;;12.60;99.90;;;;;;5049794;28;20049;-78
2024/03/30 02:35:22;;;;;;;6.03;4.38;;;12.40;99.90;;;;;;5054012;28;20080;-78
2024/03/30 02:38:08;;;;;;;5.88;3.80;;;12.40;99.90;;;;;;5044899;28;20041;-78
2024/03/30 02:40:56;;;;;;;5.68;4.43;;;12.30;99.90;;;;;;5048433;28;20416;-78
2024/03/30 02:43:42;;;;;;;5.82;3.40;;;12.30;99.90;;;;;;5043751;28;20037;-79
2024/03/30 02:46:27;;;;;;;5.40;3.63;;;12.20;99.90;;;;;;5033523;28;20034;-76
2024/03/30 02:49:14;;;;;;;6.32;3.88;;;12.20;99.90;;;;;;5049702;28;20120;-77
2024/03/30 02:52:00;;;;;;;4.60;3.63;;;12.20;99.90;;;;;;5028243;28;20469;-74
2024/03/30 02:54:48;;;;;;;6.30;4.22;;;12.20;99.90;;;;;;5046178;28;20203;-74
2024/03/30 02:57:34;;;;;;;6.88;3.95;;;12.20;99.90;;;;;;5049296;28;20742;-74
2024/03/30 03:00:19;;;;;;;6.05;3.78;;;12.10;99.90;;;;;;5034896;28;20128;-75
2024/03/30 03:03:05;;;;;;;5.82;3.58;;;12.10;99.90;;;;;;5038396;28;20455;-75
2024/03/30 03:05:59;;;;;;;5.00;3.53;;;12.10;99.90;;;;;;5041331;28;20463;-75
2024/03/30 03:08:45;;;;;;;4.45;2.95;;;12.10;99.90;;;;;;5037536;28;20539;-75
2024/03/30 03:11:31;;;;;;;5.72;3.53;;;12.00;99.90;;;;;;5043899;28;20481;-74
2024/03/30 03:14:17;;;;;;;5.72;3.28;;;12.00;99.90;;;;;;5050478;28;20036;-75
2024/03/30 03:17:03;;;;;;;4.45;3.22;;;12.00;99.90;;;;;;5049430;28;20037;-75
2024/03/30 03:19:49;;;;;;;4.45;3.10;;;12.00;99.90;;;;;;5049017;28;20052;-75
2024/03/30 03:22:35;;;;;;;4.32;3.25;;;12.00;99.90;;;;;;5055766;28;20079;-75
2024/03/30 03:25:21;;;;;;;4.75;2.90;;;11.90;99.90;;;;;;5060709;28;20036;-75
2024/03/30 03:28:07;;;;;;;5.10;3.33;;;12.00;99.90;;;;;;5044629;28;20037;-75
2024/03/30 03:30:53;;;;;;;4.43;3.40;;;11.90;99.90;;;;;;5043361;28;20140;-75
2024/03/30 03:33:39;;;;;;;3.60;2.60;;;11.90;99.90;;;;;;5039924;28;20056;-75
2024/03/30 03:36:25;;;;;;;4.55;2.97;;;11.90;99.90;;;;;;5053562;28;20037;-75
2024/03/30 03:39:11;;;;;;;5.70;2.88;;;11.90;99.90;;;;;;5042159;28;20103;-75
2024/03/30 03:41:57;;;;;;;4.82;3.60;;;11.80;99.90;;;;;;5035937;28;20095;-74
2024/03/30 03:44:43;;;;;;;5.78;3.60;;;11.80;99.90;;;;;;5031091;28;20144;-75
2024/03/30 03:47:28;;;;;;;4.85;3.15;;;11.70;99.90;;;;;;5018610;28;20037;-75
2024/03/30 03:50:15;;;;;;;6.03;4.20;;;11.60;99.90;;;;;;5021590;28;20045;-74
2024/03/30 03:53:01;;;;;;;4.75;3.28;;;11.60;99.90;;;;;;5051213;28;20053;-75
2024/03/30 03:55:47;;;;;;;4.50;3.10;;;11.60;99.90;;;;;;5053064;28;20115;-75
2024/03/30 03:58:33;;;;;;;5.40;3.10;;;11.60;99.90;;;;;;5028472;28;20146;-75
2024/03/30 04:01:19;;;;;;;5.13;3.50;;;11.60;99.90;;;;;;5043749;28;20444;-74
2024/03/30 04:04:05;;;;;;;5.40;2.90;;;11.60;99.90;;;;;;5051650;28;20064;-75
2024/03/30 04:06:51;;;;;;;7.18;3.47;;;11.60;99.90;;;;;;5051781;28;20045;-74
2024/03/30 04:09:37;;;;;;;4.57;3.22;;;11.50;99.90;;;;;;5034472;28;20128;-75
2024/03/30 04:12:24;;;;;;;4.53;2.80;;;11.60;99.90;;;;;;5050173;28;20053;-75
2024/03/30 04:15:10;;;;;;;4.30;2.97;;;11.60;99.90;;;;;;5027155;28;20049;-75
2024/03/30 04:17:56;;;;;;;4.90;2.67;;;11.60;99.90;;;;;;5041197;28;20512;-75
2024/03/30 04:20:42;;;;;;;5.40;3.40;;;11.60;99.90;;;;;;5044618;28;20049;-75
2024/03/30 04:23:31;;;;;;;5.15;2.80;;;11.50;99.90;;;;;;5046604;28;20076;-75
2024/03/30 04:26:19;;;;;;;4.93;2.90;;;11.60;99.90;;;;;;5025273;28;20610;-76
2024/03/30 04:29:05;;;;;;;3.53;2.88;;;11.60;99.90;;;;;;5051799;28;20060;-75
2024/03/30 04:31:51;;;;;;;5.28;3.40;;;11.50;99.90;;;;;;5038243;28;20049;-75
2024/03/30 04:34:37;;;;;;;4.55;2.70;;;11.60;99.90;;;;;;5038649;28;20038;-75
2024/03/30 04:37:23;;;;;;;5.30;3.05;;;11.50;99.90;;;;;;5042620;28;20052;-75
2024/03/30 04:40:10;;;;;;;4.32;2.75;;;11.60;99.90;;;;;;5043261;28;20151;-75
2024/03/30 04:42:56;;;;;;;5.38;3.40;;;11.50;99.90;;;;;;5032544;28;20044;-75
2024/03/30 04:45:41;;;;;;;4.68;2.90;;;11.60;99.90;;;;;;5039530;28;20444;-75
2024/03/30 04:48:28;;;;;;;4.68;3.10;;;11.50;99.90;;;;;;5049206;28;20933;-75
2024/03/30 04:51:14;;;;;;;7.15;3.08;;;11.50;99.90;;;;;;5051347;28;20040;-75
2024/03/30 04:54:00;;;;;;;5.25;3.10;;;11.50;99.90;;;;;;5040450;28;20482;-75
2024/03/30 04:56:46;;;;;;;4.32;2.67;;;11.50;99.90;;;;;;5042728;28;20118;-75
2024/03/30 04:59:32;;;;;;;4.57;2.83;;;11.50;99.90;;;;;;5049421;28;20459;-75
2024/03/30 05:02:18;;;;;;;4.70;3.33;;;11.50;99.90;;;;;;5051169;28;20037;-75
2024/03/30 05:05:04;;;;;;;5.32;3.08;;;11.50;99.90;;;;;;5051205;28;20082;-75
2024/03/30 05:07:50;;;;;;;4.60;3.17;;;11.50;99.90;;;;;;5045734;28;20045;-76
2024/03/30 05:10:37;;;;;;;4.85;2.92;;;11.60;99.90;;;;;;5044075;28;20041;-76
2024/03/30 05:13:24;;;;;;;6.07;3.33;;;11.60;99.90;;;;;;5031344;28;20057;-76
2024/03/30 05:16:10;;;;;;;3.30;2.72;;;11.50;99.90;;;;;;5033220;28;20481;-76
2024/03/30 05:18:58;;;;;;;5.35;2.67;;;11.50;99.90;;;;;;5047498;28;20053;-76
2024/03/30 05:21:44;;;;;;;3.42;2.50;;;11.60;99.90;;;;;;5050590;28;20139;-75
2024/03/30 05:24:30;;;;;;;4.57;3.10;;;11.60;99.90;;;;;;5037716;28;20038;-74
2024/03/30 05:27:17;;;;;;;4.80;3.10;;;11.60;99.90;;;;;;5033996;28;20107;-74
2024/03/30 05:30:04;;;;;;;5.90;3.40;;;11.60;99.90;;;;;;5031646;28;20678;-76
2024/03/30 05:32:52;;;;;;;5.22;3.15;;;11.60;99.90;;;;;;5042410;28;20056;-79
2024/03/30 05:35:38;;;;;;;4.57;3.08;;;11.70;99.90;;;;;;5042020;28;20249;-79
2024/03/30 05:38:24;;;;;;;4.32;3.13;;;11.80;99.90;;;;;;5043746;28;20120;-78
2024/03/30 05:41:10;;;;;;;5.22;3.58;;;11.80;99.90;;;;;;5050819;28;20183;-78
2024/03/30 05:43:56;;;;;;;4.93;3.30;;;11.90;99.90;;;;;;5049504;28;20045;-78
2024/03/30 05:46:42;;;;;;;4.75;3.13;;;12.00;99.90;;;;;;5049855;28;20040;-75
2024/03/30 05:49:27;;;;;;;5.22;3.00;;;12.00;99.90;;;;;;5047003;28;20037;-75
2024/03/30 05:52:14;;;;;;;6.38;3.25;;;12.10;99.90;;;;;;5046085;28;20131;-78
2024/03/30 05:55:03;;;;;;;5.00;3.20;;;12.10;99.90;;;;;;5048859;28;20036;-78
2024/03/30 05:57:50;;;;;;;5.60;3.17;;;12.10;99.80;;;;;;5021513;28;20052;-79
2024/03/30 06:00:36;;;;;;;6.78;3.53;;;12.10;99.70;;;;;;5044298;28;20489;-79
2024/03/30 06:03:22;;;;;;;5.70;3.55;;;12.10;99.70;;;;;;5049709;28;20041;-79
2024/03/30 06:06:08;;;;;;;7.20;3.50;;;12.10;99.60;;;;;;5047019;28;20036;-79
2024/03/30 06:08:54;;;;;;;4.90;3.67;;;12.10;99.60;;;;;;5031518;28;20068;-79
2024/03/30 06:11:40;;;;;;;4.72;3.15;;;12.10;99.60;;;;;;5039190;28;20056;-79
2024/03/30 06:14:26;;;;;;;5.70;3.25;;;12.20;99.50;;;;;;5029870;28;20079;-81
2024/03/30 06:17:12;;;;;;;6.18;3.63;;;12.20;99.50;;;;;;5044954;28;20087;-79
2024/03/30 06:20:00;;;;;;;5.07;3.30;;;12.30;99.50;;;;;;5026013;28;20056;-79
2024/03/30 06:22:46;;;;;;;8.02;3.67;;;12.30;99.50;;;;;;5045834;28;20041;-79
2024/03/30 06:25:32;;;;;;;6.00;3.00;;;12.30;99.40;;;;;;5047133;28;20045;-80
2024/03/30 06:28:18;;;;;;;6.10;3.30;;;12.40;99.30;;;;;;5030465;28;20045;-79
2024/03/30 06:31:04;;;;;;;6.22;2.90;;;12.40;99.20;;;;;;5038645;28;20073;-72
2024/03/30 06:33:51;;;;;;;6.68;3.80;;;12.50;99.10;;;;;;5036144;28;20120;-78
2024/03/30 06:36:37;;;;;;;4.82;3.60;;;12.50;99.10;;;;;;5043804;28;20068;-74
2024/03/30 06:39:23;;;;;;;5.78;3.20;;;12.50;99.10;;;;;;5047568;28;20041;-72
2024/03/30 06:45:34;;;;;;;4.55;3.05;;;12.60;98.90;;;;;;4968941;28;20069;-74
2024/03/30 06:48:20;;;;;;;4.47;2.85;;;12.70;98.90;;;;;;4967682;28;20035;-73
2024/03/30 06:51:06;;;;;;;5.55;3.42;;;12.80;98.90;;;;;;4955487;28;20043;-74
2024/03/30 06:53:52;;;;;;;8.07;3.22;;;12.80;98.80;;;;;;4967171;28;20110;-74
2024/03/30 06:56:37;;;;;;;5.43;3.30;;;12.80;98.70;;;;;;4963834;28;20065;-74
2024/03/30 06:59:25;;;;;;;10.80;3.72;;;12.90;98.70;;;;;;4966364;28;20086;-74
2024/03/30 07:02:12;;;;;;;4.45;2.80;;;12.90;98.60;;;;;;4961712;28;20051;-74
2024/03/30 07:04:57;;;;;;;7.22;3.35;;;13.00;98.50;;;;;;4967589;28;20034;-74
2024/03/30 07:07:43;;;;;;;6.28;2.90;;;13.10;98.60;;;;;;4970323;28;20153;-75
2024/03/30 08:36:07;;;;;;;5.68;2.70;;;15.30;97.20;;;;;;5040743;28;20758;-70
2024/03/30 08:38:54;;;;;;;7.10;3.25;;;15.40;97.20;;;;;;5036032;28;20061;-70
2024/03/30 08:41:39;;;;;;;9.55;3.38;;;15.50;97.10;;;;;;5044856;28;20048;-70
2024/03/30 08:44:25;;;;;;;6.82;3.72;;;15.60;97.00;;;;;;5042697;28;20076;-70
2024/03/30 08:47:11;;;;;;;9.27;3.15;;;15.70;96.90;;;;;;5048409;28;20048;-70
2024/03/30 08:49:57;;;;;;;15.13;3.50;;;15.80;96.80;;;;;;5049200;28;20029;-70
2024/03/30 08:52:44;;;;;;;7.57;3.88;;;15.90;96.60;;;;;;5049259;28;20040;-69
2024/03/30 08:55:30;;;;;;;7.97;3.08;;;16.00;96.40;;;;;;5045536;28;20044;-70
2024/03/30 08:58:16;;;;;;;7.47;3.67;;;16.10;96.20;;;;;;5030830;28;21096;-70
2024/03/30 09:01:02;;;;;;;9.73;3.28;;;16.20;96.00;;;;;;5036567;28;20405;-70
2024/03/30 09:03:49;;;;;;;8.68;3.45;;;16.40;95.90;;;;;;5047232;28;20037;-70
2024/03/30 09:06:35;;;;;;;9.80;3.30;;;16.40;95.70;;;;;;5046149;28;20052;-69
2024/03/30 09:09:22;;;;;;;13.40;3.70;;;16.50;95.60;;;;;;5046704;28;20036;-75
2024/03/30 09:12:08;;;;;;;9.07;3.95;;;16.60;95.50;;;;;;5040225;28;20389;-71
2024/03/30 09:14:55;;;;;;;10.32;3.15;;;16.70;95.40;;;;;;5042465;28;20114;-71
2024/03/30 09:17:41;;;;;;;10.32;3.78;;;16.80;95.40;;;;;;5044836;28;20124;-71
2024/03/30 09:20:27;;;;;;;11.45;3.80;;;16.90;95.30;;;;;;5048757;28;20049;-70
2024/03/30 09:23:13;;;;;;;10.60;3.58;;;17.00;95.10;;;;;;5045315;28;20056;-71
2024/03/30 09:26:00;;;;;;;11.18;3.80;;;17.10;95.10;;;;;;5037606;28;20037;-71
2024/03/30 09:28:46;;;;;;;10.43;3.65;;;17.30;94.90;;;;;;5042813;28;20071;-71
2024/03/30 09:31:32;;;;;;;13.77;3.70;;;17.40;94.70;;;;;;5044890;28;20451;-71
2024/03/30 09:34:18;;;;;;;12.98;4.38;;;17.50;94.50;;;;;;5047701;28;20043;-70
2024/03/30 09:37:07;;;;;;;15.02;4.07;;;17.60;94.30;;;;;;5044833;28;20492;-71
2024/03/30 09:39:54;;;;;;;14.13;4.82;;;17.70;94.20;;;;;;5038029;28;20128;-71
2024/03/30 09:42:40;;;;;;;22.25;4.25;;;17.80;94.00;;;;;;5049096;28;20046;-70
2024/03/30 09:45:27;;;;;;;19.73;4.32;;;17.90;93.90;;;;;;5030584;28;21120;-70
2024/03/30 09:48:15;;;;;;;20.52;5.50;;;18.00;93.80;;;;;;5024214;28;20474;-71
2024/03/30 09:51:01;;;;;;;11.23;3.72;;;18.10;93.70;;;;;;5046790;28;20044;-70
2024/03/30 09:53:47;;;;;;;17.30;4.38;;;18.20;93.50;;;;;;5045603;28;20067;-71
2024/03/30 09:56:35;;;;;;;16.67;5.85;;;18.40;93.30;;;;;;5041161;28;20056;-71
2024/03/30 09:59:21;;;;;;;20.92;6.10;;;18.50;93.00;;;;;;5044889;28;20132;-71
2024/03/30 10:02:07;;;;;;;17.65;4.38;;;18.50;92.80;;;;;;5049542;28;20052;-71
2024/03/30 10:04:55;;;;;;;16.13;4.82;;;18.70;92.70;;;;;;5035122;28;20436;-71
2024/03/30 10:08:02;;;;;;;13.30;4.70;;;18.80;92.60;;;;;;5045651;28;20460;-70
2024/03/30 10:10:58;;;;;;;20.90;4.75;;;18.90;92.40;;;;;;5036992;28;20485;-71
2024/03/30 10:13:54;;;;;;;15.85;5.38;;;19.00;92.20;;;;;;5036735;28;20044;-78
2024/03/30 10:16:40;;;;;;;15.10;4.10;;;19.00;92.10;;;;;;5034712;28;20151;-77
2024/03/30 10:19:28;;;;;;;22.48;5.53;;;19.10;92.00;;;;;;5048977;28;20045;-80
2024/03/30 10:22:14;;;;;;;34.22;7.75;;;19.20;91.80;;;;;;5034304;28;20087;-77
2024/03/30 10:25:00;;;;;;;21.52;5.00;;;19.30;91.70;;;;;;5041976;28;20119;-75
2024/03/30 10:27:46;;;;;;;25.15;4.93;;;19.40;91.60;;;;;;5040697;28;20040;-75
2024/03/30 10:30:33;;;;;;;19.08;6.95;;;19.50;91.40;;;;;;5046374;28;20090;-74
2024/03/30 10:33:21;;;;;;;25.08;7.20;;;19.60;91.10;;;;;;5035592;28;20504;-73
2024/03/30 10:36:10;;;;;;;20.95;6.70;;;19.70;90.90;;;;;;5019518;28;20081;-77
2024/03/30 10:38:56;;;;;;;26.27;7.95;;;19.90;90.70;;;;;;5046048;28;20045;-78
2024/03/30 10:41:44;;;;;;;28.58;6.53;;;20.00;90.70;;;;;;5052289;28;20045;-77
2024/03/30 10:44:30;;;;;;;27.27;7.80;;;20.00;90.50;;;;;;5050935;28;20041;-78
2024/03/30 10:47:16;;;;;;;33.15;7.47;;;20.20;90.40;;;;;;5037021;28;20053;-77
2024/03/30 10:50:03;;;;;;;24.25;6.65;;;20.30;90.40;;;;;;5040944;28;20037;-77
2024/03/30 10:52:49;;;;;;;38.05;7.72;;;20.40;90.00;;;;;;5052405;28;20044;-78
2024/03/30 10:55:39;;;;;;;40.63;7.63;;;20.50;89.70;;;;;;5036958;28;20044;-78
2024/03/30 10:58:25;;;;;;;37.72;9.98;;;20.60;88.80;;;;;;5042190;28;20056;-78
2024/03/30 11:01:12;;;;;;;35.38;7.40;;;20.70;88.30;;;;;;5040705;28;20471;-77
2024/03/30 11:03:58;;;;;;;33.85;8.45;;;20.80;87.60;;;;;;5040519;28;20037;-77
2024/03/30 11:06:45;;;;;;;39.15;8.50;;;20.90;86.90;;;;;;5039627;28;20436;-78
2024/03/30 11:09:33;;;;;;;30.58;9.20;;;21.00;86.30;;;;;;5038042;28;20049;-78
2024/03/30 11:12:19;;;;;;;34.08;6.88;;;21.10;85.90;;;;;;5041157;28;20261;-77
2024/03/30 11:15:06;;;;;;;34.97;8.25;;;21.20;85.70;;;;;;5041169;28;20102;-78
2024/03/30 11:17:58;;;;;;;42.33;10.40;;;21.30;85.30;;;;;;5031015;28;20041;-77
2024/03/30 11:20:55;;;;;;;38.42;8.60;;;21.30;84.10;;;;;;5040074;28;20060;-76
2024/03/30 11:23:56;;;;;;;40.55;9.80;;;21.40;83.60;;;;;;5028789;28;20051;-78
2024/03/30 11:26:55;;;;;;;34.45;9.45;;;21.50;83.40;;;;;;5038701;28;20591;-78
2024/03/30 11:30:03;;;;;;;37.15;8.80;;;21.60;83.00;;;;;;5040625;28;20137;-76
2024/03/30 11:33:06;;;;;;;27.63;7.07;;;21.70;82.70;;;;;;5041603;28;20546;-78
2024/03/30 11:36:06;;;;;;;28.95;7.95;;;21.70;82.30;;;;;;5039452;28;20072;-77
2024/03/30 11:39:18;;;;;;;37.92;8.95;;;21.70;81.60;;;;;;5038437;28;20033;-77
2024/03/30 11:42:12;;;;;;;41.38;9.85;;;21.80;81.40;;;;;;5038518;28;20053;-77
2024/03/30 11:44:59;;;;;;;40.42;9.90;;;21.90;81.20;;;;;;5039680;28;20381;-77
2024/03/30 11:47:45;;;;;;;34.75;8.98;;;21.90;80.80;;;;;;5038987;28;20041;-74
2024/03/30 11:50:32;;;;;;;46.17;9.43;;;22.00;80.40;;;;;;5042031;28;20396;-78
2024/03/30 11:53:20;;;;;;;34.05;9.95;;;22.10;80.80;;;;;;5046937;28;20052;-75
2024/03/30 11:56:08;;;;;;;32.00;7.40;;;22.10;80.30;;;;;;5045001;28;20055;-75
2024/03/30 11:58:57;;;;;;;37.22;8.32;;;22.20;79.90;;;;;;5033002;28;20049;-75
2024/03/30 12:01:43;;;;;;;33.42;8.60;;;22.30;80.00;;;;;;5044948;28;20515;-75
2024/03/30 12:04:31;;;;;;;38.60;9.23;;;22.30;79.80;;;;;;5051116;28;20049;-75
2024/03/30 12:07:17;;;;;;;32.97;8.40;;;22.40;79.10;;;;;;5045028;28;20041;-74
2024/03/30 12:10:04;;;;;;;35.20;9.10;;;22.40;79.20;;;;;;5047887;28;20049;-75
2024/03/30 12:12:58;;;;;;;39.20;8.57;;;22.50;79.20;;;;;;5044734;28;20057;-76
2024/03/30 12:15:44;;;;;;;33.42;7.85;;;22.60;78.70;;;;;;5049223;28;20545;-75
2024/03/30 12:18:31;;;;;;;41.85;8.93;;;22.60;78.40;;;;;;5049482;28;20095;-75
2024/03/30 12:21:17;;;;;;;36.45;7.97;;;22.70;77.80;;;;;;5045203;28;20057;-74
2024/03/30 12:24:04;;;;;;;31.75;7.97;;;22.70;77.40;;;;;;5018919;28;20052;-75
2024/03/30 12:26:52;;;;;;;51.92;9.00;;;22.80;77.50;;;;;;5046457;28;20045;-75
2024/03/30 12:29:38;;;;;;;31.20;8.77;;;22.80;77.30;;;;;;5051153;28;20120;-75
2024/03/30 12:32:24;;;;;;;34.85;8.90;;;22.90;77.00;;;;;;5035814;28;20120;-74
2024/03/30 12:35:10;;;;;;;39.92;7.72;;;23.00;76.70;;;;;;5031951;28;20120;-75
2024/03/30 12:37:56;;;;;;;45.40;8.80;;;23.00;76.20;;;;;;5035525;28;20054;-75
2024/03/30 12:40:43;;;;;;;29.98;8.25;;;23.10;76.30;;;;;;5049083;28;20053;-75
2024/03/30 12:43:29;;;;;;;29.05;7.95;;;23.10;75.90;;;;;;5047359;28;20040;-75
2024/03/30 12:46:15;;;;;;;37.03;8.65;;;23.20;75.50;;;;;;5049302;28;20043;-75
2024/03/30 12:49:03;;;;;;;28.02;8.50;;;23.20;75.60;;;;;;5044243;28;20504;-75
2024/03/30 12:51:48;;;;;;;37.08;10.27;;;23.30;75.00;;;;;;5047773;28;20036;-75
2024/03/30 12:54:34;;;;;;;32.00;9.82;;;23.30;74.70;;;;;;5050449;28;20052;-76
2024/03/30 12:57:22;;;;;;;41.33;9.93;;;23.40;74.40;;;;;;5042916;28;20037;-76
2024/03/30 13:00:16;;;;;;;36.80;9.65;;;23.40;73.60;;;;;;5044858;28;20061;-77
2024/03/30 13:03:02;;;;;;;38.45;8.63;;;23.50;73.20;;;;;;5033215;28;20429;-75
2024/03/30 13:05:48;;;;;;;34.67;8.68;;;23.50;72.40;;;;;;5031587;28;20452;-76
2024/03/30 13:08:48;;;;;;;48.55;11.13;;;23.60;72.40;;;;;;5051246;28;20492;-75
2024/03/30 13:11:34;;;;;;;32.65;8.38;;;23.70;72.20;;;;;;5049851;28;20123;-76
2024/03/30 13:14:20;;;;;;;44.85;8.40;;;23.80;73.00;;;;;;5036825;28;20033;-76
2024/03/30 13:17:06;;;;;;;47.33;9.25;;;23.90;72.40;;;;;;5050717;28;20068;-75
2024/03/30 13:19:53;;;;;;;41.42;8.88;;;23.90;71.60;;;;;;5043234;28;20052;-76
2024/03/30 13:22:44;;;;;;;42.58;8.38;;;24.00;71.40;;;;;;5046191;28;20041;-76
2024/03/30 13:25:30;;;;;;;32.30;8.10;;;24.00;71.10;;;;;;5038438;28;20440;-75
2024/03/30 13:28:16;;;;;;;38.90;8.57;;;24.10;70.60;;;;;;5050798;28;20045;-76
2024/03/30 13:31:03;;;;;;;37.88;9.23;;;24.10;69.80;;;;;;5049087;28;20091;-74
2024/03/30 13:33:48;;;;;;;50.03;10.27;;;24.20;69.20;;;;;;5046689;28;20045;-75
2024/03/30 13:36:35;;;;;;;36.95;9.27;;;24.30;68.60;;;;;;5040015;28;20044;-76
2024/03/30 13:39:21;;;;;;;39.85;8.50;;;24.30;67.70;;;;;;5041225;28;20048;-74
2024/03/30 13:42:08;;;;;;;37.00;7.78;;;24.30;67.30;;;;;;5051613;28;20072;-75
2024/03/30 13:44:54;;;;;;;39.33;8.68;;;24.30;67.40;;;;;;5049422;28;20033;-75
2024/03/30 13:47:40;;;;;;;38.10;10.52;;;24.30;67.20;;;;;;5052349;28;20140;-75
2024/03/30 13:50:26;;;;;;;40.45;8.57;;;24.30;66.70;;;;;;5042177;28;20044;-75
2024/03/30 13:53:12;;;;;;;41.65;10.27;;;24.30;66.30;;;;;;5042517;28;20065;-75
2024/03/30 13:55:58;;;;;;;37.15;9.13;;;24.30;67.50;;;;;;5045982;28;20040;-75
2024/03/30 13:58:44;;;;;;;34.55;9.43;;;24.20;66.60;;;;;;5048660;28;20131;-76
2024/03/30 14:01:30;;;;;;;36.40;9.10;;;24.10;66.30;;;;;;5049051;28;20059;-75
2024/03/30 14:04:16;;;;;;;33.63;7.20;;;24.10;66.10;;;;;;5036717;28;20477;-76
2024/03/30 14:07:03;;;;;;;29.27;9.02;;;24.10;66.60;;;;;;5048491;28;20044;-75
2024/03/30 14:09:50;;;;;;;31.67;10.25;;;24.10;65.20;;;;;;5047609;28;20398;-76
2024/03/30 14:12:36;;;;;;;39.53;8.05;;;24.10;65.00;;;;;;5032253;28;20061;-75
2024/03/30 14:15:22;;;;;;;28.70;7.32;;;24.10;64.40;;;;;;5039108;28;20053;-74
2024/03/30 14:18:08;;;;;;;39.15;8.13;;;24.10;64.30;;;;;;5045712;28;20041;-75
2024/03/30 14:20:53;;;;;;;29.90;7.38;;;24.10;64.70;;;;;;5043983;28;20046;-75
2024/03/30 14:23:39;;;;;;;44.58;8.10;;;24.10;64.60;;;;;;5048022;28;20050;-76
2024/03/30 14:26:25;;;;;;;35.22;7.60;;;24.00;64.20;;;;;;5054531;28;20095;-75
2024/03/30 14:29:11;;;;;;;31.30;7.85;;;24.00;64.10;;;;;;5045227;28;20039;-76
2024/03/30 14:31:57;;;;;;;28.88;7.05;;;24.00;63.90;;;;;;5050699;28;20571;-76
2024/03/30 14:34:43;;;;;;;28.83;7.63;;;24.00;63.80;;;;;;5043707;28;20056;-75
2024/03/30 14:37:29;;;;;;;26.60;7.05;;;24.00;63.60;;;;;;5045235;28;20041;-75
2024/03/30 14:40:15;;;;;;;28.08;7.15;;;23.90;63.60;;;;;;5045061;28;20497;-75
2024/03/30 14:43:02;;;;;;;31.25;8.35;;;24.00;64.10;;;;;;5054043;28;20033;-75
2024/03/30 14:45:48;;;;;;;34.53;9.43;;;24.00;63.70;;;;;;5040563;28;20047;-75
2024/03/30 14:48:34;;;;;;;31.33;8.35;;;24.00;63.70;;;;;;5053939;28;20077;-75
2024/03/30 14:51:20;;;;;;;40.90;8.57;;;23.90;63.80;;;;;;5049912;28;20033;-75
2024/03/30 14:54:07;;;;;;;38.97;8.98;;;23.90;63.60;;;;;;5043941;28;20136;-75
2024/03/30 14:56:53;;;;;;;24.95;6.78;;;23.90;63.70;;;;;;5050810;28;20085;-74
2024/03/30 14:59:39;;;;;;;34.38;9.88;;;23.80;63.30;;;;;;5038369;28;20052;-74
2024/03/30 15:02:25;;;;;;;35.20;8.05;;;23.90;63.40;;;;;;5051142;28;20132;-74
2024/03/30 15:05:11;;;;;;;27.50;7.38;;;23.80;63.50;;;;;;5036596;28;20477;-75
2024/03/30 15:07:57;;;;;;;27.73;8.48;;;23.70;63.60;;;;;;5041985;28;20033;-75
2024/03/30 15:10:43;;;;;;;35.65;9.38;;;23.70;63.80;;;;;;5047530;28;20044;-76
2024/03/30 15:13:29;;;;;;;29.98;7.43;;;23.70;64.00;;;;;;5043590;28;20041;-70
2024/03/30 15:16:15;;;;;;;42.25;8.55;;;23.60;64.20;;;;;;5042965;28;20057;-74
2024/03/30 15:19:01;;;;;;;25.02;6.97;;;23.60;64.50;;;;;;5047526;28;20036;-74
2024/03/30 15:21:47;;;;;;;31.05;7.25;;;23.60;64.80;;;;;;5035358;28;20049;-74
2024/03/30 15:24:33;;;;;;;31.27;8.15;;;23.50;65.10;;;;;;5050708;28;20485;-74
2024/03/30 15:27:19;;;;;;;33.08;8.75;;;23.50;65.30;;;;;;5045324;28;20499;-73
2024/03/30 15:33:10;;;;;;;30.60;7.43;;;23.40;65.60;;;;;;5047111;28;20132;-73
2024/03/30 15:36:00;;;;;;;36.58;8.65;;;23.40;65.90;;;;;;5051669;28;20071;-69
2024/03/30 15:38:45;;;;;;;32.88;7.40;;;23.30;66.00;;;;;;5038479;28;20052;-74
2024/03/30 15:41:32;;;;;;;40.35;8.43;;;23.30;66.10;;;;;;5045846;28;20083;-73
2024/03/30 15:44:18;;;;;;;34.10;7.72;;;23.20;66.30;;;;;;5051153;28;20033;-73
2024/03/30 15:47:04;;;;;;;34.80;8.20;;;23.20;66.40;;;;;;5049612;28;20037;-74
2024/03/30 15:49:50;;;;;;;45.25;8.05;;;23.20;66.50;;;;;;5048570;28;20499;-73
2024/03/30 15:52:36;;;;;;;25.90;6.63;;;23.10;66.50;;;;;;5043969;28;20374;-73
2024/03/30 15:55:22;;;;;;;29.17;8.27;;;23.00;66.60;;;;;;5042078;28;20098;-80